createdAt,value
2023-08-26T00:00:25.542Z,4.60
2023-08-26T00:02:57.597Z,4.27
2023-08-26T00:05:29.389Z,4.93
2023-08-26T00:08:01.305Z,4.37
2023-08-26T00:10:34.396Z,4.60
2023-08-26T00:13:06.294Z,4.30
2023-08-26T00:15:38.291Z,4.27
2023-08-26T00:18:12.690Z,4.63
2023-08-26T00:20:44.874Z,4.30
2023-08-26T00:23:16.749Z,4.97
2023-08-26T00:25:49.957Z,5.10
2023-08-26T00:28:21.833Z,4.10
2023-08-26T00:31:03.650Z,5.13
2023-08-26T00:33:35.569Z,4.57
2023-08-26T00:36:07.572Z,4.47
2023-08-26T00:38:39.392Z,4.70
2023-08-26T00:41:12.625Z,4.60
2023-08-26T00:43:44.384Z,4.53
2023-08-26T00:46:16.267Z,5.40
2023-08-26T00:48:48.103Z,5.10
2023-08-26T00:51:20.606Z,5.10
2023-08-26T00:53:54.250Z,5.47
2023-08-26T00:56:28.300Z,4.90
2023-08-26T00:59:00.014Z,4.67
2023-08-26T01:01:34.094Z,5.13
2023-08-26T01:04:06.870Z,5.17
2023-08-26T01:06:38.751Z,5.03
2023-08-26T01:09:10.672Z,4.83
2023-08-26T01:11:59.761Z,6.00
2023-08-26T01:14:40.166Z,5.60
2023-08-26T01:17:13.472Z,5.40
2023-08-26T01:19:47.682Z,5.10
2023-08-26T01:22:25.281Z,5.50
2023-08-26T01:24:59.207Z,5.03
2023-08-26T01:27:31.113Z,5.17
2023-08-26T01:30:04.846Z,5.40
2023-08-26T01:32:48.621Z,5.27
2023-08-26T01:35:30.974Z,5.77
2023-08-26T01:38:04.820Z,5.63
2023-08-26T01:40:42.997Z,5.90
2023-08-26T01:43:15.178Z,6.03
2023-08-26T01:45:46.788Z,6.07
2023-08-26T01:48:18.770Z,6.20
2023-08-26T01:50:50.715Z,6.20
2023-08-26T01:53:22.577Z,6.53
2023-08-26T01:55:55.822Z,7.63
2023-08-26T01:58:27.718Z,6.90
2023-08-26T02:00:59.638Z,6.47
2023-08-26T02:03:31.600Z,6.90
2023-08-26T02:06:03.422Z,7.67
2023-08-26T02:08:35.410Z,7.37
2023-08-26T02:11:09.740Z,8.00
2023-08-26T02:13:41.398Z,6.90
2023-08-26T02:16:13.288Z,7.40
2023-08-26T02:18:46.423Z,7.60
2023-08-26T02:21:18.097Z,8.00
2023-08-26T02:23:49.843Z,7.50
2023-08-26T02:26:23.037Z,8.00
2023-08-26T02:28:56.378Z,9.40
2023-08-26T02:31:28.782Z,10.10
2023-08-26T02:34:00.508Z,10.03
2023-08-26T02:36:32.335Z,10.33
2023-08-26T02:39:04.251Z,10.50
2023-08-26T02:41:37.588Z,10.43
2023-08-26T02:44:09.461Z,10.33
2023-08-26T02:46:42.762Z,11.57
2023-08-26T02:49:14.706Z,11.83
2023-08-26T02:51:46.668Z,10.87
2023-08-26T02:54:18.490Z,11.00
2023-08-26T02:56:52.597Z,11.70
2023-08-26T02:59:24.281Z,13.00
2023-08-26T03:02:02.542Z,12.70
2023-08-26T03:04:34.343Z,12.30
2023-08-26T03:07:06.156Z,13.37
2023-08-26T03:09:38.020Z,14.30
2023-08-26T03:12:12.335Z,15.70
2023-08-26T03:14:44.330Z,16.23
2023-08-26T03:17:16.213Z,15.83
2023-08-26T03:19:48.107Z,17.73
2023-08-26T03:22:20.035Z,18.20
2023-08-26T03:24:52.162Z,18.00
2023-08-26T03:27:26.098Z,19.23
2023-08-26T03:29:58.061Z,21.17
2023-08-26T03:32:31.443Z,18.50
2023-08-26T03:35:04.009Z,18.30
2023-08-26T03:37:35.961Z,20.00
2023-08-26T03:40:10.254Z,21.97
2023-08-26T03:42:45.819Z,22.93
2023-08-26T03:45:17.838Z,23.17
2023-08-26T03:47:49.678Z,21.10
2023-08-26T03:50:21.686Z,20.97
2023-08-26T03:52:53.496Z,23.83
2023-08-26T03:55:25.381Z,25.73
2023-08-26T03:57:58.647Z,24.93
2023-08-26T04:00:30.748Z,28.17
2023-08-26T04:03:02.623Z,28.03
2023-08-26T04:05:34.664Z,29.13
2023-08-26T04:08:07.973Z,30.13
2023-08-26T04:10:39.904Z,31.53
2023-08-26T04:13:27.546Z,31.37
2023-08-26T04:16:04.830Z,30.77
2023-08-26T04:18:35.965Z,32.90
2023-08-26T04:21:08.406Z,33.93
2023-08-26T04:23:40.291Z,35.33
2023-08-26T04:26:12.174Z,35.30
2023-08-26T04:28:45.316Z,36.33
2023-08-26T04:31:17.742Z,35.50
2023-08-26T04:33:49.414Z,34.37
2023-08-26T04:36:21.347Z,34.03
2023-08-26T04:38:53.255Z,35.53
2023-08-26T04:41:25.901Z,33.20
2023-08-26T04:44:00.492Z,35.33
2023-08-26T04:46:32.936Z,35.27
2023-08-26T04:49:05.810Z,34.40
2023-08-26T04:51:39.577Z,35.37
2023-08-26T04:54:11.323Z,35.60
2023-08-26T04:56:43.201Z,35.57
2023-08-26T04:59:16.405Z,33.57
2023-08-26T05:01:48.588Z,34.83
2023-08-26T05:04:20.762Z,34.40
2023-08-26T05:06:52.342Z,35.37
2023-08-26T05:09:24.222Z,35.07
2023-08-26T05:11:58.226Z,34.00
2023-08-26T05:14:31.343Z,34.17
2023-08-26T05:17:03.189Z,35.63
2023-08-26T05:19:35.109Z,34.73
2023-08-26T05:22:08.046Z,31.90
2023-08-26T05:24:39.752Z,35.57
2023-08-26T05:27:11.612Z,36.20
2023-08-26T05:29:45.225Z,34.63
2023-08-26T05:32:16.877Z,36.00
2023-08-26T05:34:48.897Z,35.33
2023-08-26T05:37:20.766Z,35.10
2023-08-26T05:39:52.615Z,34.93
2023-08-26T05:42:24.548Z,32.37
2023-08-26T05:44:57.567Z,33.70
2023-08-26T05:47:29.425Z,32.93
2023-08-26T05:50:02.278Z,33.27
2023-08-26T05:52:34.195Z,32.53
2023-08-26T05:55:06.294Z,31.77
2023-08-26T05:57:38.185Z,32.17
2023-08-26T06:00:11.810Z,27.83
2023-08-26T06:02:43.606Z,31.13
2023-08-26T06:05:15.646Z,29.73
2023-08-26T06:07:47.552Z,31.47
2023-08-26T06:10:19.655Z,28.80
2023-08-26T06:12:52.127Z,28.97
2023-08-26T06:15:26.369Z,27.30
2023-08-26T06:17:58.359Z,26.47
2023-08-26T06:20:30.750Z,27.00
2023-08-26T06:23:03.753Z,26.00
2023-08-26T06:25:35.711Z,26.23
2023-08-26T06:28:08.635Z,26.40
2023-08-26T06:30:41.664Z,22.40
2023-08-26T06:33:13.732Z,23.23
2023-08-26T06:35:49.698Z,23.37
2023-08-26T06:38:21.728Z,21.60
2023-08-26T06:40:59.254Z,22.27
2023-08-26T06:43:31.764Z,21.33
2023-08-26T06:46:05.475Z,21.07
2023-08-26T06:48:37.417Z,21.10
2023-08-26T06:51:09.352Z,20.43
2023-08-26T06:53:41.337Z,19.87
2023-08-26T06:56:13.340Z,21.90
2023-08-26T06:58:45.278Z,20.50
2023-08-26T07:01:18.516Z,20.17
2023-08-26T07:03:50.574Z,20.40
2023-08-26T07:06:25.028Z,20.57
2023-08-26T07:08:56.742Z,18.67
2023-08-26T07:11:28.619Z,19.43
2023-08-26T07:14:01.657Z,17.40
2023-08-26T07:16:34.813Z,19.27
2023-08-26T07:19:09.850Z,12.60
2023-08-26T07:21:41.503Z,5.57
2023-08-26T07:24:13.736Z,3.10
2023-08-26T07:26:46.047Z,2.20
2023-08-26T07:29:17.691Z,1.97
2023-08-26T07:31:51.011Z,1.73
2023-08-26T07:34:23.033Z,2.33
2023-08-26T07:36:55.032Z,2.10
2023-08-26T07:39:27.016Z,2.67
2023-08-26T07:41:58.880Z,1.80
2023-08-26T07:44:30.896Z,1.83
2023-08-26T07:47:04.146Z,1.87
2023-08-26T07:49:35.939Z,1.60
2023-08-26T07:52:07.853Z,1.70
2023-08-26T07:54:39.883Z,1.90
2023-08-26T07:57:11.730Z,1.80
2023-08-26T07:59:43.664Z,1.70
2023-08-26T08:02:16.622Z,1.80
2023-08-26T08:04:49.684Z,1.63
2023-08-26T08:07:21.626Z,1.70
2023-08-26T08:09:54.460Z,1.63
2023-08-26T08:12:26.448Z,1.40
2023-08-26T08:14:58.455Z,1.83
2023-08-26T08:17:31.553Z,1.70
2023-08-26T08:20:04.183Z,2.03
2023-08-26T08:22:44.375Z,1.57
2023-08-26T08:25:16.825Z,1.50
2023-08-26T08:27:48.701Z,1.50
2023-08-26T08:30:20.646Z,1.40
2023-08-26T08:32:53.969Z,1.30
2023-08-26T08:35:25.936Z,1.47
2023-08-26T08:37:57.862Z,1.60
2023-08-26T08:40:29.740Z,1.50
2023-08-26T08:43:06.765Z,1.60
2023-08-26T08:45:40.957Z,1.77
2023-08-26T08:48:14.647Z,1.40
2023-08-26T08:50:46.673Z,1.40
2023-08-26T08:53:24.156Z,1.30
2023-08-26T08:55:57.610Z,1.80
2023-08-26T08:58:30.668Z,1.40
2023-08-26T09:01:05.353Z,1.30
2023-08-26T09:03:39.437Z,1.50
2023-08-26T09:06:13.687Z,1.40
2023-08-26T09:08:48.229Z,1.60
2023-08-26T09:11:19.874Z,1.40
2023-08-26T09:13:51.979Z,1.97
2023-08-26T09:16:38.375Z,1.77
2023-08-26T09:19:14.167Z,1.50
2023-08-26T09:21:48.017Z,1.60
2023-08-26T09:24:21.195Z,1.60
2023-08-26T09:27:04.129Z,1.77
2023-08-26T09:29:39.257Z,1.30
2023-08-26T09:32:12.246Z,1.90
2023-08-26T09:34:45.463Z,1.60
2023-08-26T09:37:18.898Z,1.40
2023-08-26T09:39:50.840Z,1.43
2023-08-26T09:42:23.560Z,2.03
2023-08-26T09:44:59.019Z,1.50
2023-08-26T09:47:37.374Z,1.23
2023-08-26T09:50:13.043Z,1.60
2023-08-26T09:52:48.451Z,1.70
2023-08-26T09:55:22.010Z,1.70
2023-08-26T09:57:55.189Z,1.50
2023-08-26T10:00:27.442Z,1.70
2023-08-26T10:03:07.474Z,1.53
2023-08-26T10:05:43.450Z,1.60
2023-08-26T10:08:15.835Z,2.00
2023-08-26T10:10:56.243Z,1.60
2023-08-26T10:13:30.017Z,1.83
2023-08-26T10:16:07.879Z,1.70
2023-08-26T10:18:48.217Z,1.77
2023-08-26T10:21:21.688Z,1.50
2023-08-26T10:23:53.981Z,1.57
2023-08-26T10:26:27.608Z,1.33
2023-08-26T10:29:00.790Z,1.93
2023-08-26T10:31:39.949Z,1.60
2023-08-26T10:34:21.378Z,1.40
2023-08-26T10:37:00.190Z,1.73
2023-08-26T10:39:35.849Z,1.50
2023-08-26T10:42:19.739Z,1.70
2023-08-26T10:44:57.245Z,1.50
2023-08-26T10:47:46.060Z,1.80
2023-08-26T10:50:23.220Z,1.60
2023-08-26T10:53:02.166Z,1.50
2023-08-26T10:55:36.601Z,1.63
2023-08-26T10:58:17.706Z,1.67
2023-08-26T11:00:51.463Z,1.50
2023-08-26T11:03:25.057Z,1.67
2023-08-26T11:06:07.520Z,1.70
2023-08-26T11:08:53.643Z,1.70
2023-08-26T11:11:25.981Z,1.70
2023-08-26T11:13:57.622Z,1.70
2023-08-26T11:16:30.111Z,1.63
2023-08-26T11:19:04.992Z,1.50
2023-08-26T11:21:38.183Z,1.60
2023-08-26T11:24:11.343Z,1.50
2023-08-26T11:26:50.000Z,1.53
2023-08-26T11:29:21.633Z,1.80
2023-08-26T11:31:53.979Z,1.57
2023-08-26T11:34:29.466Z,1.70
2023-08-26T11:37:01.592Z,1.60
2023-08-26T11:39:37.612Z,1.63
2023-08-26T11:42:16.524Z,1.73
2023-08-26T11:44:50.738Z,1.70
2023-08-26T11:47:23.638Z,1.80
2023-08-26T11:49:58.801Z,2.00
2023-08-26T11:52:37.391Z,1.80
2023-08-26T11:55:10.086Z,1.70
2023-08-26T11:57:43.216Z,1.90
2023-08-26T12:00:18.547Z,1.90
2023-08-26T12:02:52.097Z,1.60
2023-08-26T12:05:24.225Z,1.53
2023-08-26T12:07:58.229Z,1.67
2023-08-26T12:10:33.089Z,1.80
2023-08-26T12:13:07.994Z,1.43
2023-08-26T12:15:43.209Z,1.40
2023-08-26T12:18:15.467Z,1.60
2023-08-26T12:20:48.475Z,2.03
2023-08-26T12:23:23.668Z,1.53
2023-08-26T12:25:57.509Z,1.70
2023-08-26T12:28:29.978Z,2.23
2023-08-26T12:31:01.829Z,1.80
2023-08-26T12:33:35.954Z,1.80
2023-08-26T12:36:11.906Z,1.90
2023-08-26T12:38:43.886Z,1.60
2023-08-26T12:41:16.820Z,1.63
2023-08-26T12:43:49.504Z,1.90
2023-08-26T12:46:21.242Z,1.60
2023-08-26T12:48:55.548Z,1.90
2023-08-26T12:51:28.191Z,1.80
2023-08-26T12:53:59.955Z,1.87
2023-08-26T12:56:33.026Z,1.80
2023-08-26T12:59:05.021Z,1.60
2023-08-26T13:01:36.889Z,1.40
2023-08-26T13:04:09.581Z,1.73
2023-08-26T13:06:42.496Z,1.63
2023-08-26T13:09:14.485Z,1.70
2023-08-26T13:11:47.593Z,1.73
2023-08-26T13:14:19.491Z,1.70
2023-08-26T13:16:51.899Z,1.40
2023-08-26T13:19:24.059Z,1.67
2023-08-26T13:21:57.643Z,1.90
2023-08-26T13:24:29.619Z,1.57
2023-08-26T13:27:03.139Z,3.80
2023-08-26T13:29:36.571Z,2.00
2023-08-26T13:32:09.345Z,2.30
2023-08-26T13:34:42.687Z,2.50
2023-08-26T13:37:15.417Z,1.80
2023-08-26T13:39:47.502Z,1.70
2023-08-26T13:42:20.717Z,1.73
2023-08-26T13:44:52.640Z,1.83
2023-08-26T13:47:24.548Z,1.70
2023-08-26T13:49:56.442Z,1.80
2023-08-26T13:52:28.364Z,1.53
2023-08-26T13:55:00.248Z,1.90
2023-08-26T13:57:33.202Z,1.70
2023-08-26T14:00:06.755Z,1.70
2023-08-26T14:02:38.793Z,3.80
2023-08-26T14:05:12.409Z,1.87
2023-08-26T14:07:45.547Z,1.80
2023-08-26T14:10:17.247Z,1.80
2023-08-26T14:12:50.258Z,5.27
2023-08-26T14:15:22.262Z,2.57
2023-08-26T14:17:54.034Z,1.47
2023-08-26T14:20:27.375Z,1.70
2023-08-26T14:22:59.246Z,4.23
2023-08-26T14:25:31.572Z,1.70
2023-08-26T14:28:05.438Z,1.60
2023-08-26T14:30:39.831Z,1.70
2023-08-26T14:33:13.652Z,1.80
2023-08-26T14:35:50.342Z,2.33
2023-08-26T14:38:25.036Z,5.53
2023-08-26T14:40:56.939Z,1.90
2023-08-26T14:43:30.091Z,1.97
2023-08-26T14:46:02.001Z,1.83
2023-08-26T14:48:34.052Z,2.57
2023-08-26T14:51:06.635Z,4.03
2023-08-26T14:53:38.364Z,3.50
2023-08-26T14:56:10.319Z,4.33
2023-08-26T14:58:43.361Z,2.27
2023-08-26T15:01:16.770Z,1.73
2023-08-26T15:03:49.493Z,1.70
2023-08-26T15:06:21.223Z,1.80
2023-08-26T15:08:53.142Z,1.57
2023-08-26T15:11:25.052Z,3.60
2023-08-26T15:13:58.343Z,2.37
2023-08-26T15:16:31.805Z,2.40
2023-08-26T15:19:03.932Z,2.10
2023-08-26T15:21:37.220Z,1.90
2023-08-26T15:24:09.942Z,1.80
2023-08-26T15:26:43.337Z,1.77
2023-08-26T15:29:16.581Z,4.77
2023-08-26T15:31:48.978Z,3.57
2023-08-26T15:34:21.337Z,2.30
2023-08-26T15:36:53.057Z,1.80
2023-08-26T15:39:25.494Z,1.97
2023-08-26T15:41:57.372Z,2.70
2023-08-26T15:44:31.676Z,2.57
2023-08-26T15:47:03.478Z,1.77
2023-08-26T15:49:35.350Z,1.93
2023-08-26T15:52:07.260Z,2.13
2023-08-26T15:54:39.153Z,2.10
2023-08-26T15:57:11.655Z,3.57
2023-08-26T15:59:44.635Z,1.60
2023-08-26T16:02:17.935Z,2.00
2023-08-26T16:04:49.801Z,2.07
2023-08-26T16:07:23.192Z,1.77
2023-08-26T16:09:55.169Z,2.30
2023-08-26T16:12:28.441Z,1.70
2023-08-26T16:15:01.727Z,2.80
2023-08-26T16:17:33.673Z,2.17
2023-08-26T16:20:05.783Z,1.60
2023-08-26T16:22:39.034Z,2.27
2023-08-26T16:25:12.991Z,6.30
2023-08-26T16:27:44.907Z,2.10
2023-08-26T16:30:18.354Z,2.07
2023-08-26T16:32:50.434Z,2.10
2023-08-26T16:35:22.209Z,1.80
2023-08-26T16:37:54.127Z,1.60
2023-08-26T16:40:26.046Z,1.50
2023-08-26T16:42:58.140Z,1.70
2023-08-26T16:45:31.627Z,1.97
2023-08-26T16:48:03.587Z,4.80
2023-08-26T16:50:36.845Z,2.10
2023-08-26T16:53:09.522Z,1.80
2023-08-26T16:55:41.858Z,2.20
2023-08-26T16:58:13.555Z,5.57
2023-08-26T17:00:46.768Z,1.50
2023-08-26T17:03:20.207Z,1.57
2023-08-26T17:05:57.130Z,1.60
2023-08-26T17:08:31.569Z,1.40
2023-08-26T17:11:09.248Z,2.90
2023-08-26T17:13:42.511Z,1.50
2023-08-26T17:16:15.750Z,1.70
2023-08-26T17:18:48.640Z,2.37
2023-08-26T17:21:20.519Z,3.83
2023-08-26T17:23:52.666Z,1.80
2023-08-26T17:26:24.360Z,1.50
2023-08-26T17:28:56.264Z,1.20
2023-08-26T17:31:30.090Z,1.60
2023-08-26T17:34:02.061Z,1.50
2023-08-26T17:36:34.222Z,1.60
2023-08-26T17:39:06.146Z,1.60
2023-08-26T17:41:38.002Z,1.60
2023-08-26T17:44:09.848Z,1.63
2023-08-26T17:46:43.027Z,1.53
2023-08-26T17:49:14.950Z,1.63
2023-08-26T17:51:46.921Z,1.90
2023-08-26T17:54:20.767Z,1.40
2023-08-26T17:56:53.532Z,2.50
2023-08-26T17:59:25.438Z,1.50
2023-08-26T18:01:58.579Z,2.27
2023-08-26T18:04:30.453Z,1.40
2023-08-26T18:07:04.262Z,1.50
2023-08-26T18:09:36.210Z,1.70
2023-08-26T18:12:08.728Z,2.10
2023-08-26T18:14:40.496Z,1.80
2023-08-26T18:17:13.689Z,1.57
2023-08-26T18:19:45.574Z,1.63
2023-08-26T18:22:17.471Z,1.60
2023-08-26T18:24:49.492Z,1.90
2023-08-26T18:27:21.327Z,1.80
2023-08-26T18:29:53.256Z,1.80
2023-08-26T18:32:26.579Z,2.10
2023-08-26T18:34:58.490Z,2.30
2023-08-26T18:37:30.308Z,2.50
2023-08-26T18:40:02.239Z,2.73
2023-08-26T18:42:34.606Z,2.60
2023-08-26T18:45:09.661Z,3.10
2023-08-26T18:47:42.826Z,2.30
2023-08-26T18:50:15.720Z,3.00
2023-08-26T18:52:47.793Z,3.00
2023-08-26T18:55:19.817Z,3.30
2023-08-26T18:57:51.726Z,2.60
2023-08-26T19:00:24.135Z,2.43
2023-08-26T19:02:57.619Z,2.77
2023-08-26T19:05:29.592Z,2.20
2023-08-26T19:08:01.608Z,2.47
2023-08-26T19:10:33.509Z,3.00
2023-08-26T19:13:07.184Z,2.00
2023-08-26T19:15:39.448Z,2.43
2023-08-26T19:18:13.127Z,2.30
2023-08-26T19:20:45.006Z,1.83
2023-08-26T19:23:16.942Z,2.40
2023-08-26T19:25:52.364Z,2.33
2023-08-26T19:28:24.346Z,2.40
2023-08-26T19:30:56.426Z,2.57
2023-08-26T19:33:29.411Z,2.87
2023-08-26T19:36:01.324Z,2.73
2023-08-26T19:38:33.283Z,2.63
2023-08-26T19:41:05.189Z,3.00
2023-08-26T19:43:37.054Z,2.30
2023-08-26T19:46:08.960Z,2.37
2023-08-26T19:48:54.600Z,2.50
2023-08-26T19:51:30.029Z,2.10
2023-08-26T19:54:01.699Z,2.20
2023-08-26T19:56:33.595Z,2.40
2023-08-26T19:59:05.862Z,2.03
2023-08-26T20:01:37.781Z,2.60
2023-08-26T20:04:11.682Z,2.40
2023-08-26T20:06:43.541Z,2.23
2023-08-26T20:09:15.583Z,2.60
2023-08-26T20:11:47.534Z,2.90
2023-08-26T20:14:19.528Z,2.70
2023-08-26T20:16:51.463Z,3.20
2023-08-26T20:19:25.047Z,2.77
2023-08-26T20:21:59.213Z,2.47
2023-08-26T20:24:32.174Z,2.43
2023-08-26T20:27:04.022Z,2.77
2023-08-26T20:29:36.406Z,2.53
2023-08-26T20:32:09.282Z,3.03
2023-08-26T20:34:42.295Z,3.10
2023-08-26T20:37:14.286Z,2.60
2023-08-26T20:39:46.209Z,2.50
2023-08-26T20:42:18.237Z,2.30
2023-08-26T20:44:50.098Z,2.23
2023-08-26T20:47:22.075Z,2.03
2023-08-26T20:50:01.626Z,2.53
2023-08-26T20:52:33.295Z,2.83
2023-08-26T20:55:05.134Z,2.50
2023-08-26T20:57:37.026Z,2.30
2023-08-26T21:00:10.998Z,2.23
2023-08-26T21:02:42.701Z,2.10
2023-08-26T21:05:15.872Z,2.20
2023-08-26T21:07:47.824Z,2.70
2023-08-26T21:10:19.754Z,2.80
2023-08-26T21:12:54.660Z,2.70
2023-08-26T21:15:26.549Z,2.40
2023-08-26T21:17:58.668Z,2.47
2023-08-26T21:20:32.444Z,2.40
2023-08-26T21:23:04.553Z,2.50
2023-08-26T21:25:36.472Z,2.43
2023-08-26T21:28:09.836Z,2.50
2023-08-26T21:30:41.854Z,2.37
2023-08-26T21:33:13.839Z,3.00
2023-08-26T21:35:47.182Z,2.70
2023-08-26T21:38:19.179Z,2.80
2023-08-26T21:40:51.031Z,2.73
2023-08-26T21:43:22.927Z,2.30
2023-08-26T21:45:54.831Z,2.10
2023-08-26T21:48:28.091Z,2.67
2023-08-26T21:51:01.244Z,2.17
2023-08-26T21:53:33.124Z,2.50
2023-08-26T21:56:05.059Z,2.80
2023-08-26T21:58:38.541Z,3.00
2023-08-26T22:01:10.770Z,3.20
2023-08-26T22:03:42.486Z,2.73
2023-08-26T22:06:15.542Z,2.50
2023-08-26T22:08:47.534Z,2.30
2023-08-26T22:11:19.370Z,2.50
2023-08-26T22:13:51.234Z,2.80
2023-08-26T22:16:23.556Z,2.47
2023-08-26T22:18:55.380Z,2.43
2023-08-26T22:21:28.333Z,2.40
2023-08-26T22:24:00.242Z,2.30
2023-08-26T22:26:32.115Z,2.30
2023-08-26T22:29:04.185Z,2.10
2023-08-26T22:31:36.036Z,2.70
2023-08-26T22:34:07.909Z,3.10
2023-08-26T22:36:41.377Z,3.13
2023-08-26T22:39:20.127Z,3.67
2023-08-26T22:41:53.379Z,3.20
2023-08-26T22:44:25.388Z,2.97
2023-08-26T22:46:57.218Z,3.17
2023-08-26T22:49:29.100Z,2.90
2023-08-26T22:52:02.329Z,3.23
2023-08-26T22:54:34.188Z,3.53
2023-08-26T22:57:07.110Z,3.30
2023-08-26T22:59:38.973Z,3.80
2023-08-26T23:02:10.946Z,3.70
2023-08-26T23:04:43.907Z,4.90
2023-08-26T23:07:17.214Z,5.37
2023-08-26T23:09:49.118Z,3.33
2023-08-26T23:12:21.016Z,3.57
2023-08-26T23:14:52.897Z,4.30
2023-08-26T23:17:26.420Z,3.43
2023-08-26T23:19:58.396Z,3.60
2023-08-26T23:22:31.385Z,3.60
2023-08-26T23:25:03.779Z,2.97
2023-08-26T23:27:36.169Z,3.00
2023-08-26T23:30:09.022Z,3.10
2023-08-26T23:32:41.810Z,2.30
2023-08-26T23:35:15.861Z,2.13
2023-08-26T23:37:49.163Z,2.20
2023-08-26T23:40:21.273Z,2.40
2023-08-26T23:42:52.861Z,2.37
2023-08-26T23:45:24.809Z,2.33
2023-08-26T23:47:57.824Z,2.40
2023-08-26T23:50:29.747Z,2.20
2023-08-26T23:53:02.992Z,2.10
2023-08-26T23:55:37.752Z,2.13
2023-08-26T23:58:10.706Z,1.87
